sensor_id;sensor_type;location;lat;lon;timestamp;pressure;altitude;pressure_sealevel;temperature;humidity
42411;BME280;28056;51.112;0.984;2022-10-16T00:04:47;99831.01;;;13.41;62.39
42411;BME280;28056;51.112;0.984;2022-10-16T00:07:15;99831.20;;;12.41;65.73
42411;BME280;28056;51.112;0.984;2022-10-16T00:09:42;99826.41;;;13.04;64.91
42411;BME280;28056;51.112;0.984;2022-10-16T00:12:09;99834.95;;;13.52;64.59
42411;BME280;28056;51.112;0.984;2022-10-16T00:14:36;99836.32;;;13.06;65.51
42411;BME280;28056;51.112;0.984;2022-10-16T00:17:04;99831.93;;;11.95;68.76
42411;BME280;28056;51.112;0.984;2022-10-16T00:19:31;99836.50;;;12.35;67.49
42411;BME280;28056;51.112;0.984;2022-10-16T00:21:59;99839.70;;;12.84;67.49
42411;BME280;28056;51.112;0.984;2022-10-16T00:24:26;99836.70;;;12.73;67.79
42411;BME280;28056;51.112;0.984;2022-10-16T00:26:54;99837.58;;;13.19;65.71
42411;BME280;28056;51.112;0.984;2022-10-16T00:29:22;99838.50;;;14.01;63.13
42411;BME280;28056;51.112;0.984;2022-10-16T00:31:49;99841.43;;;13.04;65.77
42411;BME280;28056;51.112;0.984;2022-10-16T00:34:17;99843.19;;;14.16;61.61
42411;BME280;28056;51.112;0.984;2022-10-16T00:36:44;99845.73;;;13.88;62.60
42411;BME280;28056;51.112;0.984;2022-10-16T00:39:12;99840.91;;;14.16;60.94
42411;BME280;28056;51.112;0.984;2022-10-16T00:41:40;99845.85;;;14.59;60.78
42411;BME280;28056;51.112;0.984;2022-10-16T00:44:45;99842.70;;;14.30;60.76
42411;BME280;28056;51.112;0.984;2022-10-16T00:47:19;99845.56;;;13.45;62.24
42411;BME280;28056;51.112;0.984;2022-10-16T00:49:50;99851.86;;;12.73;63.11
42411;BME280;28056;51.112;0.984;2022-10-16T00:52:18;99854.06;;;14.28;59.04
42411;BME280;28056;51.112;0.984;2022-10-16T00:54:47;99856.98;;;14.66;58.04
42411;BME280;28056;51.112;0.984;2022-10-16T00:57:16;99856.95;;;14.13;58.45
42411;BME280;28056;51.112;0.984;2022-10-16T00:59:44;99858.67;;;14.57;57.36
42411;BME280;28056;51.112;0.984;2022-10-16T01:02:13;99860.55;;;14.37;57.77
42411;BME280;28056;51.112;0.984;2022-10-16T01:04:43;99863.73;;;14.39;57.18
42411;BME280;28056;51.112;0.984;2022-10-16T01:07:20;99867.61;;;14.32;57.05
42411;BME280;28056;51.112;0.984;2022-10-16T01:09:59;99874.51;;;14.98;55.30
42411;BME280;28056;51.112;0.984;2022-10-16T01:12:36;99877.25;;;13.71;57.71
42411;BME280;28056;51.112;0.984;2022-10-16T01:15:10;99877.93;;;12.88;59.15
42411;BME280;28056;51.112;0.984;2022-10-16T01:17:44;99875.78;;;13.60;57.23
42411;BME280;28056;51.112;0.984;2022-10-16T01:20:18;99875.94;;;14.24;55.90
42411;BME280;28056;51.112;0.984;2022-10-16T01:22:59;99881.31;;;14.08;56.33
42411;BME280;28056;51.112;0.984;2022-10-16T01:25:39;99875.66;;;14.38;57.23
42411;BME280;28056;51.112;0.984;2022-10-16T01:28:11;99865.38;;;12.55;62.10
42411;BME280;28056;51.112;0.984;2022-10-16T01:30:42;99887.39;;;11.05;66.82
42411;BME280;28056;51.112;0.984;2022-10-16T01:33:16;99896.29;;;10.32;71.91
42411;BME280;28056;51.112;0.984;2022-10-16T01:35:50;99899.13;;;9.70;77.45
42411;BME280;28056;51.112;0.984;2022-10-16T01:38:22;99895.71;;;10.01;76.77
42411;BME280;28056;51.112;0.984;2022-10-16T01:40:59;99899.33;;;11.66;75.45
42411;BME280;28056;51.112;0.984;2022-10-16T01:43:33;99904.41;;;11.51;73.63
42411;BME280;28056;51.112;0.984;2022-10-16T01:46:02;99892.86;;;11.36;74.55
42411;BME280;28056;51.112;0.984;2022-10-16T01:48:30;99884.29;;;12.20;72.37
42411;BME280;28056;51.112;0.984;2022-10-16T01:51:05;99879.61;;;12.02;72.02
42411;BME280;28056;51.112;0.984;2022-10-16T01:53:34;99889.91;;;11.16;74.56
42411;BME280;28056;51.112;0.984;2022-10-16T01:56:05;99899.29;;;11.97;71.96
42411;BME280;28056;51.112;0.984;2022-10-16T01:58:36;99898.26;;;12.32;70.14
42411;BME280;28056;51.112;0.984;2022-10-16T02:01:08;99891.05;;;12.87;68.89
42411;BME280;28056;51.112;0.984;2022-10-16T02:03:38;99892.90;;;12.77;69.13
42411;BME280;28056;51.112;0.984;2022-10-16T02:06:08;99886.60;;;12.90;67.97
42411;BME280;28056;51.112;0.984;2022-10-16T02:08:37;99881.51;;;13.26;66.25
42411;BME280;28056;51.112;0.984;2022-10-16T02:11:06;99890.87;;;13.48;67.00
42411;BME280;28056;51.112;0.984;2022-10-16T02:13:38;99895.93;;;12.86;67.07
42411;BME280;28056;51.112;0.984;2022-10-16T02:16:07;99894.78;;;13.18;66.37
42411;BME280;28056;51.112;0.984;2022-10-16T02:18:35;99893.14;;;13.43;65.08
42411;BME280;28056;51.112;0.984;2022-10-16T02:21:07;99893.63;;;13.94;63.27
42411;BME280;28056;51.112;0.984;2022-10-16T02:23:48;99898.04;;;13.41;64.30
42411;BME280;28056;51.112;0.984;2022-10-16T02:26:21;99905.16;;;14.03;62.88
42411;BME280;28056;51.112;0.984;2022-10-16T02:28:56;99902.00;;;13.54;62.79
42411;BME280;28056;51.112;0.984;2022-10-16T02:31:28;99898.49;;;12.35;65.99
42411;BME280;28056;51.112;0.984;2022-10-16T02:33:59;99899.00;;;13.03;64.86
42411;BME280;28056;51.112;0.984;2022-10-16T02:36:28;99909.86;;;13.51;63.45
42411;BME280;28056;51.112;0.984;2022-10-16T02:38:56;99918.87;;;13.40;63.34
42411;BME280;28056;51.112;0.984;2022-10-16T02:41:24;99928.46;;;12.68;63.88
42411;BME280;28056;51.112;0.984;2022-10-16T02:43:57;99933.32;;;12.67;64.60
42411;BME280;28056;51.112;0.984;2022-10-16T02:46:26;99933.21;;;11.94;67.26
42411;BME280;28056;51.112;0.984;2022-10-16T02:48:53;99933.33;;;11.83;68.28
42411;BME280;28056;51.112;0.984;2022-10-16T02:51:21;99935.35;;;10.73;69.90
42411;BME280;28056;51.112;0.984;2022-10-16T02:53:49;99938.15;;;11.93;68.55
42411;BME280;28056;51.112;0.984;2022-10-16T02:56:17;99938.75;;;12.26;67.44
42411;BME280;28056;51.112;0.984;2022-10-16T02:58:44;99936.35;;;12.95;64.53
42411;BME280;28056;51.112;0.984;2022-10-16T03:01:12;99935.20;;;12.15;64.87
42411;BME280;28056;51.112;0.984;2022-10-16T03:03:40;99940.38;;;12.69;64.20
42411;BME280;28056;51.112;0.984;2022-10-16T03:06:08;99940.66;;;13.60;62.01
42411;BME280;28056;51.112;0.984;2022-10-16T03:08:35;99939.12;;;12.12;64.06
42411;BME280;28056;51.112;0.984;2022-10-16T03:11:03;99939.84;;;11.68;65.68
42411;BME280;28056;51.112;0.984;2022-10-16T03:13:31;99944.22;;;11.65;67.54
42411;BME280;28056;51.112;0.984;2022-10-16T03:16:00;99947.16;;;11.97;68.86
42411;BME280;28056;51.112;0.984;2022-10-16T03:18:28;99952.40;;;11.95;67.64
42411;BME280;28056;51.112;0.984;2022-10-16T03:20:56;99957.21;;;11.28;69.78
42411;BME280;28056;51.112;0.984;2022-10-16T03:23:23;99963.77;;;12.34;66.80
42411;BME280;28056;51.112;0.984;2022-10-16T03:25:51;99971.59;;;11.49;67.24
42411;BME280;28056;51.112;0.984;2022-10-16T03:28:19;99975.60;;;12.39;65.32
42411;BME280;28056;51.112;0.984;2022-10-16T03:30:46;99983.82;;;11.97;67.16
42411;BME280;28056;51.112;0.984;2022-10-16T03:33:14;99983.21;;;11.93;66.42
42411;BME280;28056;51.112;0.984;2022-10-16T03:35:42;99987.53;;;10.97;69.06
42411;BME280;28056;51.112;0.984;2022-10-16T03:38:10;99991.30;;;10.79;69.93
42411;BME280;28056;51.112;0.984;2022-10-16T03:40:37;99994.76;;;10.92;70.93
42411;BME280;28056;51.112;0.984;2022-10-16T03:43:04;99991.17;;;11.68;67.88
42411;BME280;28056;51.112;0.984;2022-10-16T03:45:31;99995.75;;;11.44;68.20
42411;BME280;28056;51.112;0.984;2022-10-16T03:47:59;100005.11;;;11.29;69.20
42411;BME280;28056;51.112;0.984;2022-10-16T03:50:27;100010.26;;;10.70;69.95
42411;BME280;28056;51.112;0.984;2022-10-16T03:53:18;100012.51;;;10.57;69.29
42411;BME280;28056;51.112;0.984;2022-10-16T03:55:45;100018.97;;;10.07;71.08
42411;BME280;28056;51.112;0.984;2022-10-16T03:58:13;100015.00;;;10.98;69.59
42411;BME280;28056;51.112;0.984;2022-10-16T04:00:41;100019.62;;;12.13;66.27
42411;BME280;28056;51.112;0.984;2022-10-16T04:03:09;100026.17;;;11.51;67.17
42411;BME280;28056;51.112;0.984;2022-10-16T04:05:37;100031.89;;;11.05;68.15
42411;BME280;28056;51.112;0.984;2022-10-16T04:08:05;100032.52;;;10.66;68.11
42411;BME280;28056;51.112;0.984;2022-10-16T04:10:32;100034.15;;;11.59;66.89
42411;BME280;28056;51.112;0.984;2022-10-16T04:12:59;100034.31;;;11.11;67.35
42411;BME280;28056;51.112;0.984;2022-10-16T04:15:27;100031.36;;;11.17;67.22
42411;BME280;28056;51.112;0.984;2022-10-16T04:17:54;100037.68;;;11.89;64.56
42411;BME280;28056;51.112;0.984;2022-10-16T04:20:22;100034.94;;;10.45;68.15
42411;BME280;28056;51.112;0.984;2022-10-16T04:22:49;100030.99;;;11.21;64.97
42411;BME280;28056;51.112;0.984;2022-10-16T04:25:17;100033.36;;;12.19;62.74
42411;BME280;28056;51.112;0.984;2022-10-16T04:27:44;100043.93;;;11.00;64.89
42411;BME280;28056;51.112;0.984;2022-10-16T04:30:12;100049.87;;;10.90;64.60
42411;BME280;28056;51.112;0.984;2022-10-16T04:32:40;100054.07;;;10.82;65.14
42411;BME280;28056;51.112;0.984;2022-10-16T04:35:14;100057.97;;;10.70;65.91
42411;BME280;28056;51.112;0.984;2022-10-16T04:37:42;100060.89;;;10.99;65.22
42411;BME280;28056;51.112;0.984;2022-10-16T04:40:09;100068.41;;;10.88;64.45
42411;BME280;28056;51.112;0.984;2022-10-16T04:42:37;100075.57;;;11.23;63.73
42411;BME280;28056;51.112;0.984;2022-10-16T04:45:06;100081.33;;;11.48;62.86
42411;BME280;28056;51.112;0.984;2022-10-16T04:47:33;100078.63;;;11.36;62.23
42411;BME280;28056;51.112;0.984;2022-10-16T04:50:01;100078.83;;;11.14;63.97
42411;BME280;28056;51.112;0.984;2022-10-16T04:52:28;100075.13;;;10.73;63.78
42411;BME280;28056;51.112;0.984;2022-10-16T04:54:55;100083.03;;;10.95;64.52
42411;BME280;28056;51.112;0.984;2022-10-16T04:57:23;100093.67;;;10.82;63.68
42411;BME280;28056;51.112;0.984;2022-10-16T04:59:51;100097.45;;;11.26;62.32
42411;BME280;28056;51.112;0.984;2022-10-16T05:02:19;100099.70;;;11.02;63.48
42411;BME280;28056;51.112;0.984;2022-10-16T05:04:46;100107.02;;;11.34;62.38
42411;BME280;28056;51.112;0.984;2022-10-16T05:07:14;100107.04;;;11.78;61.69
42411;BME280;28056;51.112;0.984;2022-10-16T05:09:42;100111.25;;;10.89;62.97
42411;BME280;28056;51.112;0.984;2022-10-16T05:12:10;100114.42;;;10.09;65.79
42411;BME280;28056;51.112;0.984;2022-10-16T05:14:37;100121.09;;;10.58;64.39
42411;BME280;28056;51.112;0.984;2022-10-16T05:17:04;100123.29;;;10.16;65.59
42411;BME280;28056;51.112;0.984;2022-10-16T05:19:31;100126.25;;;10.99;63.56
42411;BME280;28056;51.112;0.984;2022-10-16T05:21:59;100126.78;;;11.94;61.26
42411;BME280;28056;51.112;0.984;2022-10-16T05:24:27;100135.51;;;10.62;64.69
42411;BME280;28056;51.112;0.984;2022-10-16T05:26:55;100134.90;;;11.41;61.52
42411;BME280;28056;51.112;0.984;2022-10-16T05:29:22;100136.32;;;11.25;62.45
42411;BME280;28056;51.112;0.984;2022-10-16T05:31:51;100136.19;;;11.01;63.17
42411;BME280;28056;51.112;0.984;2022-10-16T05:34:18;100142.45;;;10.44;63.69
42411;BME280;28056;51.112;0.984;2022-10-16T05:36:46;100146.43;;;10.51;63.92
42411;BME280;28056;51.112;0.984;2022-10-16T05:39:14;100148.79;;;11.93;61.09
42411;BME280;28056;51.112;0.984;2022-10-16T05:41:42;100154.21;;;11.44;61.13
42411;BME280;28056;51.112;0.984;2022-10-16T05:44:09;100156.01;;;11.68;60.49
42411;BME280;28056;51.112;0.984;2022-10-16T05:46:37;100152.84;;;11.27;60.75
42411;BME280;28056;51.112;0.984;2022-10-16T05:49:05;100154.40;;;12.07;59.47
42411;BME280;28056;51.112;0.984;2022-10-16T05:51:32;100159.79;;;11.92;60.31
42411;BME280;28056;51.112;0.984;2022-10-16T05:54:00;100160.95;;;11.71;59.86
42411;BME280;28056;51.112;0.984;2022-10-16T05:56:27;100165.98;;;11.37;60.94
42411;BME280;28056;51.112;0.984;2022-10-16T05:58:55;100168.32;;;11.66;61.00
42411;BME280;28056;51.112;0.984;2022-10-16T06:01:22;100172.59;;;11.80;60.72
42411;BME280;28056;51.112;0.984;2022-10-16T06:03:50;100181.12;;;11.32;61.01
42411;BME280;28056;51.112;0.984;2022-10-16T06:06:19;100185.81;;;12.27;59.37
42411;BME280;28056;51.112;0.984;2022-10-16T06:08:48;100186.88;;;11.92;59.92
42411;BME280;28056;51.112;0.984;2022-10-16T06:11:18;100189.18;;;12.55;57.88
42411;BME280;28056;51.112;0.984;2022-10-16T06:13:49;100190.83;;;12.66;57.26
42411;BME280;28056;51.112;0.984;2022-10-16T06:16:17;100192.40;;;12.91;57.12
42411;BME280;28056;51.112;0.984;2022-10-16T06:18:45;100196.20;;;12.68;57.16
42411;BME280;28056;51.112;0.984;2022-10-16T06:21:14;100193.66;;;13.09;56.19
42411;BME280;28056;51.112;0.984;2022-10-16T06:23:44;100200.46;;;12.91;56.50
42411;BME280;28056;51.112;0.984;2022-10-16T06:26:14;100202.81;;;11.92;59.23
42411;BME280;28056;51.112;0.984;2022-10-16T06:28:42;100206.96;;;11.75;59.51
42411;BME280;28056;51.112;0.984;2022-10-16T06:31:11;100210.45;;;11.70;58.76
42411;BME280;28056;51.112;0.984;2022-10-16T06:33:39;100210.98;;;12.11;57.94
42411;BME280;28056;51.112;0.984;2022-10-16T06:36:09;100210.09;;;12.82;56.49
42411;BME280;28056;51.112;0.984;2022-10-16T06:38:37;100216.21;;;13.21;55.02
42411;BME280;28056;51.112;0.984;2022-10-16T06:41:06;100222.80;;;13.48;54.84
42411;BME280;28056;51.112;0.984;2022-10-16T06:43:34;100230.18;;;13.15;55.71
42411;BME280;28056;51.112;0.984;2022-10-16T06:46:03;100228.38;;;13.51;55.05
42411;BME280;28056;51.112;0.984;2022-10-16T06:48:31;100235.20;;;13.04;55.18
42411;BME280;28056;51.112;0.984;2022-10-16T06:51:00;100236.27;;;13.30;55.32
42411;BME280;28056;51.112;0.984;2022-10-16T06:53:31;100239.07;;;12.88;56.28
42411;BME280;28056;51.112;0.984;2022-10-16T06:56:05;100236.23;;;12.37;57.00
42411;BME280;28056;51.112;0.984;2022-10-16T06:58:33;100238.10;;;13.26;55.75
42411;BME280;28056;51.112;0.984;2022-10-16T07:01:01;100245.16;;;12.85;55.60
42411;BME280;28056;51.112;0.984;2022-10-16T07:03:28;100250.58;;;13.62;54.34
42411;BME280;28056;51.112;0.984;2022-10-16T07:05:56;100257.47;;;14.23;52.95
42411;BME280;28056;51.112;0.984;2022-10-16T07:08:24;100264.34;;;13.83;53.14
42411;BME280;28056;51.112;0.984;2022-10-16T07:10:58;100268.83;;;14.33;52.31
42411;BME280;28056;51.112;0.984;2022-10-16T07:13:28;100279.18;;;14.27;52.24
42411;BME280;28056;51.112;0.984;2022-10-16T07:15:56;100285.74;;;14.61;51.65
42411;BME280;28056;51.112;0.984;2022-10-16T07:18:23;100289.70;;;14.39;51.59
42411;BME280;28056;51.112;0.984;2022-10-16T07:20:51;100293.75;;;14.71;51.24
42411;BME280;28056;51.112;0.984;2022-10-16T07:23:18;100296.40;;;14.52;51.61
42411;BME280;28056;51.112;0.984;2022-10-16T07:25:45;100298.23;;;13.75;53.05
42411;BME280;28056;51.112;0.984;2022-10-16T07:28:12;100304.19;;;14.39;51.89
42411;BME280;28056;51.112;0.984;2022-10-16T07:30:40;100308.61;;;14.61;51.60
42411;BME280;28056;51.112;0.984;2022-10-16T07:33:08;100307.72;;;14.88;51.03
42411;BME280;28056;51.112;0.984;2022-10-16T07:35:35;100309.26;;;14.65;51.04
42411;BME280;28056;51.112;0.984;2022-10-16T07:38:03;100315.00;;;14.50;51.87
42411;BME280;28056;51.112;0.984;2022-10-16T07:40:30;100317.74;;;14.54;51.46
42411;BME280;28056;51.112;0.984;2022-10-16T07:42:58;100323.72;;;14.82;50.99
42411;BME280;28056;51.112;0.984;2022-10-16T07:45:25;100328.50;;;15.15;50.43
42411;BME280;28056;51.112;0.984;2022-10-16T07:47:53;100332.71;;;14.89;50.23
42411;BME280;28056;51.112;0.984;2022-10-16T07:50:31;100338.76;;;14.90;50.45
42411;BME280;28056;51.112;0.984;2022-10-16T07:52:59;100339.76;;;14.03;51.42
42411;BME280;28056;51.112;0.984;2022-10-16T07:55:26;100341.68;;;15.12;50.53
42411;BME280;28056;51.112;0.984;2022-10-16T07:57:55;100340.04;;;15.06;50.37
42411;BME280;28056;51.112;0.984;2022-10-16T08:00:22;100342.05;;;15.24;50.69
42411;BME280;28056;51.112;0.984;2022-10-16T08:02:49;100340.13;;;15.09;50.90
42411;BME280;28056;51.112;0.984;2022-10-16T08:05:16;100341.90;;;14.59;52.22
42411;BME280;28056;51.112;0.984;2022-10-16T08:07:49;100342.09;;;14.90;51.50
42411;BME280;28056;51.112;0.984;2022-10-16T08:10:18;100346.50;;;15.29;50.70
42411;BME280;28056;51.112;0.984;2022-10-16T08:12:46;100354.63;;;14.34;52.05
42411;BME280;28056;51.112;0.984;2022-10-16T08:15:13;100357.68;;;15.10;50.89
42411;BME280;28056;51.112;0.984;2022-10-16T08:17:41;100364.10;;;14.56;51.24
42411;BME280;28056;51.112;0.984;2022-10-16T08:20:10;100368.43;;;15.00;50.90
42411;BME280;28056;51.112;0.984;2022-10-16T08:22:37;100373.53;;;14.85;51.62
42411;BME280;28056;51.112;0.984;2022-10-16T08:25:05;100373.79;;;15.30;51.29
42411;BME280;28056;51.112;0.984;2022-10-16T08:27:33;100375.07;;;14.07;53.06
42411;BME280;28056;51.112;0.984;2022-10-16T08:30:00;100375.10;;;15.22;51.43
42411;BME280;28056;51.112;0.984;2022-10-16T08:32:27;100373.69;;;15.69;51.10
42411;BME280;28056;51.112;0.984;2022-10-16T08:34:54;100375.18;;;16.16;50.12
42411;BME280;28056;51.112;0.984;2022-10-16T08:37:22;100373.16;;;16.54;53.81
42411;BME280;28056;51.112;0.984;2022-10-16T08:39:50;100376.26;;;16.16;49.95
42411;BME280;28056;51.112;0.984;2022-10-16T08:42:32;100378.72;;;15.64;49.28
42411;BME280;28056;51.112;0.984;2022-10-16T08:45:19;100384.16;;;15.98;48.87
42411;BME280;28056;51.112;0.984;2022-10-16T08:47:58;100390.01;;;14.18;51.60
42411;BME280;28056;51.112;0.984;2022-10-16T08:50:30;100390.38;;;14.62;51.41
42411;BME280;28056;51.112;0.984;2022-10-16T08:52:58;100394.76;;;14.72;51.36
42411;BME280;28056;51.112;0.984;2022-10-16T08:55:32;100398.60;;;15.97;49.56
42411;BME280;28056;51.112;0.984;2022-10-16T08:58:01;100401.14;;;16.14;49.47
42411;BME280;28056;51.112;0.984;2022-10-16T09:00:29;100400.56;;;14.71;50.88
42411;BME280;28056;51.112;0.984;2022-10-16T09:03:05;100402.26;;;14.35;52.01
42411;BME280;28056;51.112;0.984;2022-10-16T09:05:51;100407.73;;;13.53;54.22
42411;BME280;28056;51.112;0.984;2022-10-16T09:08:27;100416.30;;;13.55;54.64
42411;BME280;28056;51.112;0.984;2022-10-16T09:10:58;100418.97;;;13.37;55.00
42411;BME280;28056;51.112;0.984;2022-10-16T09:13:29;100423.72;;;12.86;56.03
42411;BME280;28056;51.112;0.984;2022-10-16T09:16:06;100421.09;;;15.43;50.90
42411;BME280;28056;51.112;0.984;2022-10-16T09:18:45;100426.39;;;14.14;54.35
42411;BME280;28056;51.112;0.984;2022-10-16T09:21:19;100430.72;;;14.71;54.23
42411;BME280;28056;51.112;0.984;2022-10-16T09:23:49;100428.27;;;14.12;55.11
42411;BME280;28056;51.112;0.984;2022-10-16T09:26:18;100425.87;;;14.17;53.36
42411;BME280;28056;51.112;0.984;2022-10-16T09:28:46;100429.38;;;12.82;56.96
42411;BME280;28056;51.112;0.984;2022-10-16T09:31:16;100426.67;;;13.80;54.24
42411;BME280;28056;51.112;0.984;2022-10-16T09:33:50;100433.42;;;13.79;56.48
42411;BME280;28056;51.112;0.984;2022-10-16T09:36:18;100436.97;;;13.91;55.72
42411;BME280;28056;51.112;0.984;2022-10-16T09:38:46;100441.74;;;14.97;52.44
42411;BME280;28056;51.112;0.984;2022-10-16T09:41:17;100446.26;;;13.45;54.40
42411;BME280;28056;51.112;0.984;2022-10-16T09:43:51;100446.27;;;13.80;55.35
42411;BME280;28056;51.112;0.984;2022-10-16T09:46:25;100446.03;;;13.94;56.50
42411;BME280;28056;51.112;0.984;2022-10-16T09:48:56;100442.85;;;13.89;53.91
42411;BME280;28056;51.112;0.984;2022-10-16T09:51:26;100434.02;;;15.19;52.11
42411;BME280;28056;51.112;0.984;2022-10-16T09:53:57;100431.71;;;15.18;52.53
42411;BME280;28056;51.112;0.984;2022-10-16T09:56:26;100432.10;;;14.11;52.48
42411;BME280;28056;51.112;0.984;2022-10-16T09:58:55;100442.78;;;13.78;54.37
42411;BME280;28056;51.112;0.984;2022-10-16T10:01:28;100444.68;;;13.33;54.68
42411;BME280;28056;51.112;0.984;2022-10-16T10:03:57;100445.78;;;14.82;51.98
42411;BME280;28056;51.112;0.984;2022-10-16T10:06:26;100447.37;;;14.33;51.20
42411;BME280;28056;51.112;0.984;2022-10-16T10:08:56;100447.43;;;16.33;49.09
42411;BME280;28056;51.112;0.984;2022-10-16T10:11:42;100445.71;;;14.84;50.81
42411;BME280;28056;51.112;0.984;2022-10-16T10:14:39;100451.28;;;15.74;49.01
42411;BME280;28056;51.112;0.984;2022-10-16T10:17:15;100451.78;;;15.43;49.68
42411;BME280;28056;51.112;0.984;2022-10-16T10:19:47;100446.29;;;16.46;48.49
42411;BME280;28056;51.112;0.984;2022-10-16T10:22:22;100446.64;;;15.93;47.93
42411;BME280;28056;51.112;0.984;2022-10-16T10:25:34;100454.28;;;17.16;48.19
42411;BME280;28056;51.112;0.984;2022-10-16T10:28:14;100456.25;;;17.75;45.13
42411;BME280;28056;51.112;0.984;2022-10-16T10:30:52;100454.46;;;17.55;44.85
42411;BME280;28056;51.112;0.984;2022-10-16T10:33:36;100455.87;;;18.08;42.77
42411;BME280;28056;51.112;0.984;2022-10-16T10:36:14;100453.21;;;19.09;42.53
42411;BME280;28056;51.112;0.984;2022-10-16T10:38:50;100454.38;;;19.46;41.55
42411;BME280;28056;51.112;0.984;2022-10-16T10:42:32;100456.76;;;19.63;42.01
42411;BME280;28056;51.112;0.984;2022-10-16T10:45:16;100459.24;;;17.33;45.16
42411;BME280;28056;51.112;0.984;2022-10-16T10:47:52;100463.17;;;18.07;43.60
42411;BME280;28056;51.112;0.984;2022-10-16T10:50:26;100461.02;;;17.60;44.11
42411;BME280;28056;51.112;0.984;2022-10-16T10:53:02;100460.98;;;18.32;41.40
42411;BME280;28056;51.112;0.984;2022-10-16T10:55:40;100454.99;;;19.46;38.66
42411;BME280;28056;51.112;0.984;2022-10-16T10:58:24;100451.54;;;19.73;39.08
42411;BME280;28056;51.112;0.984;2022-10-16T11:00:59;100458.64;;;18.48;41.80
42411;BME280;28056;51.112;0.984;2022-10-16T11:03:39;100455.15;;;19.22;41.73
42411;BME280;28056;51.112;0.984;2022-10-16T11:06:14;100456.74;;;19.80;39.82
42411;BME280;28056;51.112;0.984;2022-10-16T11:09:33;100456.89;;;19.83;40.27
42411;BME280;28056;51.112;0.984;2022-10-16T11:12:07;100448.43;;;20.18;39.61
42411;BME280;28056;51.112;0.984;2022-10-16T11:14:42;100449.20;;;19.48;40.98
42411;BME280;28056;51.112;0.984;2022-10-16T11:17:15;100452.18;;;19.39;40.74
42411;BME280;28056;51.112;0.984;2022-10-16T11:19:49;100454.58;;;18.91;41.64
42411;BME280;28056;51.112;0.984;2022-10-16T11:22:22;100452.73;;;19.06;41.50
42411;BME280;28056;51.112;0.984;2022-10-16T11:24:54;100448.41;;;19.61;41.20
42411;BME280;28056;51.112;0.984;2022-10-16T11:27:33;100449.23;;;20.11;41.19
42411;BME280;28056;51.112;0.984;2022-10-16T11:30:04;100454.25;;;19.93;41.19
42411;BME280;28056;51.112;0.984;2022-10-16T11:32:38;100454.59;;;18.68;42.86
42411;BME280;28056;51.112;0.984;2022-10-16T11:35:15;100455.16;;;18.61;42.78
42411;BME280;28056;51.112;0.984;2022-10-16T11:37:48;100448.04;;;18.33;43.52
42411;BME280;28056;51.112;0.984;2022-10-16T11:40:23;100447.56;;;18.73;42.27
42411;BME280;28056;51.112;0.984;2022-10-16T11:42:57;100451.28;;;18.78;43.24
42411;BME280;28056;51.112;0.984;2022-10-16T11:45:32;100448.59;;;17.32;46.38
42411;BME280;28056;51.112;0.984;2022-10-16T11:48:07;100448.64;;;17.94;44.35
42411;BME280;28056;51.112;0.984;2022-10-16T11:50:43;100442.18;;;17.91;45.35
42411;BME280;28056;51.112;0.984;2022-10-16T11:53:21;100443.05;;;16.69;47.34
42411;BME280;28056;51.112;0.984;2022-10-16T11:55:51;100441.28;;;17.12;47.07
42411;BME280;28056;51.112;0.984;2022-10-16T11:58:25;100441.45;;;17.88;45.98
42411;BME280;28056;51.112;0.984;2022-10-16T12:01:00;100447.02;;;18.51;44.96
42411;BME280;28056;51.112;0.984;2022-10-16T12:03:33;100446.65;;;18.12;46.16
42411;BME280;28056;51.112;0.984;2022-10-16T12:06:13;100450.49;;;18.24;45.56
42411;BME280;28056;51.112;0.984;2022-10-16T12:08:45;100450.69;;;17.81;46.67
42411;BME280;28056;51.112;0.984;2022-10-16T12:11:36;100451.17;;;17.58;47.24
42411;BME280;28056;51.112;0.984;2022-10-16T12:14:07;100442.27;;;17.31;47.20
42411;BME280;28056;51.112;0.984;2022-10-16T12:16:55;100444.12;;;17.67;47.73
42411;BME280;28056;51.112;0.984;2022-10-16T12:19:24;100445.99;;;18.17;47.60
42411;BME280;28056;51.112;0.984;2022-10-16T12:21:55;100450.22;;;17.54;47.89
42411;BME280;28056;51.112;0.984;2022-10-16T12:24:33;100452.66;;;19.34;45.66
42411;BME280;28056;51.112;0.984;2022-10-16T12:27:02;100455.17;;;18.14;45.83
42411;BME280;28056;51.112;0.984;2022-10-16T12:29:34;100445.09;;;19.54;44.88
42411;BME280;28056;51.112;0.984;2022-10-16T12:32:05;100443.70;;;19.38;45.03
42411;BME280;28056;51.112;0.984;2022-10-16T12:34:39;100449.66;;;17.73;46.78
42411;BME280;28056;51.112;0.984;2022-10-16T12:37:14;100441.02;;;19.21;44.93
42411;BME280;28056;51.112;0.984;2022-10-16T12:39:47;100441.33;;;18.12;46.51
42411;BME280;28056;51.112;0.984;2022-10-16T12:42:22;100435.04;;;18.16;46.48
42411;BME280;28056;51.112;0.984;2022-10-16T12:44:50;100422.54;;;16.04;51.82
42411;BME280;28056;51.112;0.984;2022-10-16T12:47:21;100422.40;;;16.38;52.88
42411;BME280;28056;51.112;0.984;2022-10-16T12:49:50;100425.41;;;15.98;53.08
42411;BME280;28056;51.112;0.984;2022-10-16T12:52:28;100430.37;;;16.90;51.62
42411;BME280;28056;51.112;0.984;2022-10-16T12:54:57;100432.06;;;17.62;50.28
42411;BME280;28056;51.112;0.984;2022-10-16T12:57:34;100435.98;;;17.91;49.54
42411;BME280;28056;51.112;0.984;2022-10-16T13:00:15;100440.14;;;19.19;47.47
42411;BME280;28056;51.112;0.984;2022-10-16T13:03:02;100430.18;;;19.27;46.30
42411;BME280;28056;51.112;0.984;2022-10-16T13:05:47;100431.91;;;20.02;44.60
42411;BME280;28056;51.112;0.984;2022-10-16T13:08:33;100430.21;;;19.80;44.53
42411;BME280;28056;51.112;0.984;2022-10-16T13:11:15;100441.76;;;18.09;46.36
42411;BME280;28056;51.112;0.984;2022-10-16T13:13:59;100441.50;;;18.10;47.28
42411;BME280;28056;51.112;0.984;2022-10-16T13:16:38;100438.71;;;18.22;47.63
42411;BME280;28056;51.112;0.984;2022-10-16T13:19:16;100430.71;;;17.58;48.94